< < Back
Terminal Aerodrome Forecast


Current Version              Previous Versions:   1  2  3  4  5  6  7  8  9  

Terminal Aerodrome Forecast

650
FTUS42 KGSP 060534
TAFAND
TAF
KAND 060534Z 0606/0706 05008KT P6SM BKN035
     FM061200 03008KT P6SM SCT040
     FM061800 VRB05KT P6SM FEW250=

Latest METAR

609
SAUS70 KWBC 061100 RRA
MTRAND
METAR KAND 061056Z AUTO 05010KT 10SM OVC049 01/M05 A3038 RMK AO2 SLP289
T00111050


USA.gov is the U.S. government's official web portal to all federal, state and local government web resources and services.